sensor_id;sensor_type;location;lat;lon;timestamp;temperature;humidity
31979;DHT22;18502;43.574;1.276;2024-02-15T00:01:31;12.80;99.90
31979;DHT22;18502;43.574;1.276;2024-02-15T00:03:56;12.80;99.90
31979;DHT22;18502;43.574;1.276;2024-02-15T00:06:22;12.70;99.90
31979;DHT22;18502;43.574;1.276;2024-02-15T00:08:48;12.80;99.90
31979;DHT22;18502;43.574;1.276;2024-02-15T00:11:17;12.70;99.90
31979;DHT22;18502;43.574;1.276;2024-02-15T00:13:43;12.70;99.90
31979;DHT22;18502;43.574;1.276;2024-02-15T00:16:15;12.70;99.90
31979;DHT22;18502;43.574;1.276;2024-02-15T00:18:41;12.70;99.90
31979;DHT22;18502;43.574;1.276;2024-02-15T00:21:07;12.70;99.90
31979;DHT22;18502;43.574;1.276;2024-02-15T00:23:33;12.70;99.90
31979;DHT22;18502;43.574;1.276;2024-02-15T00:25:58;12.60;99.90
31979;DHT22;18502;43.574;1.276;2024-02-15T00:28:24;12.70;99.90
31979;DHT22;18502;43.574;1.276;2024-02-15T00:30:52;12.60;99.90
31979;DHT22;18502;43.574;1.276;2024-02-15T00:33:17;12.50;99.90
31979;DHT22;18502;43.574;1.276;2024-02-15T00:35:43;12.50;99.90
31979;DHT22;18502;43.574;1.276;2024-02-15T00:38:09;12.50;99.90
31979;DHT22;18502;43.574;1.276;2024-02-15T00:40:34;12.40;99.90
31979;DHT22;18502;43.574;1.276;2024-02-15T00:43:00;12.40;99.90
31979;DHT22;18502;43.574;1.276;2024-02-15T00:45:26;12.40;99.90
31979;DHT22;18502;43.574;1.276;2024-02-15T00:47:51;12.40;99.90
31979;DHT22;18502;43.574;1.276;2024-02-15T00:50:17;12.40;99.90
31979;DHT22;18502;43.574;1.276;2024-02-15T00:52:43;12.30;99.90
31979;DHT22;18502;43.574;1.276;2024-02-15T00:55:09;12.30;99.90
31979;DHT22;18502;43.574;1.276;2024-02-15T00:57:35;12.30;99.90
31979;DHT22;18502;43.574;1.276;2024-02-15T01:00:00;12.30;99.90
31979;DHT22;18502;43.574;1.276;2024-02-15T01:02:27;12.20;99.90
31979;DHT22;18502;43.574;1.276;2024-02-15T01:04:54;12.30;99.90
31979;DHT22;18502;43.574;1.276;2024-02-15T01:07:22;12.30;99.90
31979;DHT22;18502;43.574;1.276;2024-02-15T01:09:52;12.40;99.90
31979;DHT22;18502;43.574;1.276;2024-02-15T01:12:18;12.40;99.90
31979;DHT22;18502;43.574;1.276;2024-02-15T01:14:43;12.40;99.90
31979;DHT22;18502;43.574;1.276;2024-02-15T01:17:09;12.30;99.90
31979;DHT22;18502;43.574;1.276;2024-02-15T01:19:35;12.30;99.90
31979;DHT22;18502;43.574;1.276;2024-02-15T01:22:00;12.20;99.90
31979;DHT22;18502;43.574;1.276;2024-02-15T01:24:26;12.20;99.90
31979;DHT22;18502;43.574;1.276;2024-02-15T01:26:52;12.10;99.90
31979;DHT22;18502;43.574;1.276;2024-02-15T01:29:18;12.10;99.90
31979;DHT22;18502;43.574;1.276;2024-02-15T01:31:44;12.00;99.90
31979;DHT22;18502;43.574;1.276;2024-02-15T01:34:10;12.00;99.90
31979;DHT22;18502;43.574;1.276;2024-02-15T01:36:36;12.00;99.90
31979;DHT22;18502;43.574;1.276;2024-02-15T01:39:01;12.00;99.90
31979;DHT22;18502;43.574;1.276;2024-02-15T01:41:27;11.90;99.90
31979;DHT22;18502;43.574;1.276;2024-02-15T01:43:53;12.00;99.90
31979;DHT22;18502;43.574;1.276;2024-02-15T01:46:19;11.90;99.90
31979;DHT22;18502;43.574;1.276;2024-02-15T01:48:45;12.00;99.90
31979;DHT22;18502;43.574;1.276;2024-02-15T01:51:12;12.00;99.90
31979;DHT22;18502;43.574;1.276;2024-02-15T01:53:41;12.10;99.90
31979;DHT22;18502;43.574;1.276;2024-02-15T01:56:08;12.10;99.90
31979;DHT22;18502;43.574;1.276;2024-02-15T01:58:34;12.10;99.90
31979;DHT22;18502;43.574;1.276;2024-02-15T02:01:01;12.20;99.90
31979;DHT22;18502;43.574;1.276;2024-02-15T02:03:27;12.10;99.90
31979;DHT22;18502;43.574;1.276;2024-02-15T02:05:53;12.10;99.90
31979;DHT22;18502;43.574;1.276;2024-02-15T02:08:19;12.00;99.90
31979;DHT22;18502;43.574;1.276;2024-02-15T02:10:44;12.10;99.90
31979;DHT22;18502;43.574;1.276;2024-02-15T02:13:11;12.10;99.90
31979;DHT22;18502;43.574;1.276;2024-02-15T02:15:37;12.10;99.90
31979;DHT22;18502;43.574;1.276;2024-02-15T02:18:04;12.00;99.90
31979;DHT22;18502;43.574;1.276;2024-02-15T02:20:34;12.00;99.90
31979;DHT22;18502;43.574;1.276;2024-02-15T02:23:15;12.00;99.90
31979;DHT22;18502;43.574;1.276;2024-02-15T02:25:42;11.90;99.90
31979;DHT22;18502;43.574;1.276;2024-02-15T02:28:09;12.00;99.90
31979;DHT22;18502;43.574;1.276;2024-02-15T02:30:35;11.90;99.90
31979;DHT22;18502;43.574;1.276;2024-02-15T02:33:01;11.90;99.90
31979;DHT22;18502;43.574;1.276;2024-02-15T02:35:27;11.90;99.90
31979;DHT22;18502;43.574;1.276;2024-02-15T02:37:56;11.90;99.90
31979;DHT22;18502;43.574;1.276;2024-02-15T02:40:21;11.90;99.90
31979;DHT22;18502;43.574;1.276;2024-02-15T02:45:13;11.90;99.90
31979;DHT22;18502;43.574;1.276;2024-02-15T02:47:38;11.90;99.90
31979;DHT22;18502;43.574;1.276;2024-02-15T02:50:05;11.90;99.90
31979;DHT22;18502;43.574;1.276;2024-02-15T02:52:30;11.90;99.90
31979;DHT22;18502;43.574;1.276;2024-02-15T02:54:56;11.80;99.90
31979;DHT22;18502;43.574;1.276;2024-02-15T02:57:23;11.80;99.90
31979;DHT22;18502;43.574;1.276;2024-02-15T02:59:49;11.80;99.90
31979;DHT22;18502;43.574;1.276;2024-02-15T03:02:14;11.80;99.90
31979;DHT22;18502;43.574;1.276;2024-02-15T03:04:40;11.80;99.90
31979;DHT22;18502;43.574;1.276;2024-02-15T03:07:06;11.80;99.90
31979;DHT22;18502;43.574;1.276;2024-02-15T03:09:32;11.70;99.90
31979;DHT22;18502;43.574;1.276;2024-02-15T03:11:59;11.80;99.90
31979;DHT22;18502;43.574;1.276;2024-02-15T03:14:26;11.80;99.90
31979;DHT22;18502;43.574;1.276;2024-02-15T03:16:52;11.80;99.90
31979;DHT22;18502;43.574;1.276;2024-02-15T03:19:21;11.80;99.90
31979;DHT22;18502;43.574;1.276;2024-02-15T03:21:48;11.70;99.90
31979;DHT22;18502;43.574;1.276;2024-02-15T03:24:13;11.70;99.90
31979;DHT22;18502;43.574;1.276;2024-02-15T03:26:39;11.60;99.90
31979;DHT22;18502;43.574;1.276;2024-02-15T03:29:06;11.60;99.90
31979;DHT22;18502;43.574;1.276;2024-02-15T03:31:34;11.60;99.90
31979;DHT22;18502;43.574;1.276;2024-02-15T03:34:05;11.60;99.90
31979;DHT22;18502;43.574;1.276;2024-02-15T03:36:31;11.50;99.90
31979;DHT22;18502;43.574;1.276;2024-02-15T03:38:57;11.60;99.90
31979;DHT22;18502;43.574;1.276;2024-02-15T03:41:22;11.60;99.90
31979;DHT22;18502;43.574;1.276;2024-02-15T03:43:48;11.60;99.90
31979;DHT22;18502;43.574;1.276;2024-02-15T03:46:14;11.50;99.90
31979;DHT22;18502;43.574;1.276;2024-02-15T03:48:42;11.40;99.90
31979;DHT22;18502;43.574;1.276;2024-02-15T03:51:18;11.40;99.90
31979;DHT22;18502;43.574;1.276;2024-02-15T03:53:46;11.40;99.90
31979;DHT22;18502;43.574;1.276;2024-02-15T03:56:13;11.40;99.90
31979;DHT22;18502;43.574;1.276;2024-02-15T03:58:38;11.30;99.90
31979;DHT22;18502;43.574;1.276;2024-02-15T04:01:04;11.30;99.90
31979;DHT22;18502;43.574;1.276;2024-02-15T04:03:32;11.30;99.90
31979;DHT22;18502;43.574;1.276;2024-02-15T04:06:00;11.30;99.90
31979;DHT22;18502;43.574;1.276;2024-02-15T04:08:25;11.30;99.90
31979;DHT22;18502;43.574;1.276;2024-02-15T04:10:52;11.30;99.90
31979;DHT22;18502;43.574;1.276;2024-02-15T04:13:17;11.30;99.90
31979;DHT22;18502;43.574;1.276;2024-02-15T04:15:43;11.30;99.90
31979;DHT22;18502;43.574;1.276;2024-02-15T04:18:09;11.30;99.90
31979;DHT22;18502;43.574;1.276;2024-02-15T04:20:37;11.20;99.90
31979;DHT22;18502;43.574;1.276;2024-02-15T04:23:03;11.20;99.90
31979;DHT22;18502;43.574;1.276;2024-02-15T04:25:30;11.20;99.90
31979;DHT22;18502;43.574;1.276;2024-02-15T04:27:56;11.20;99.90
31979;DHT22;18502;43.574;1.276;2024-02-15T04:30:23;11.20;99.90
31979;DHT22;18502;43.574;1.276;2024-02-15T04:32:49;11.30;99.90
31979;DHT22;18502;43.574;1.276;2024-02-15T04:35:17;11.20;99.90
31979;DHT22;18502;43.574;1.276;2024-02-15T04:37:42;11.30;99.90
31979;DHT22;18502;43.574;1.276;2024-02-15T04:40:08;11.30;99.90
31979;DHT22;18502;43.574;1.276;2024-02-15T04:42:35;11.30;99.90
31979;DHT22;18502;43.574;1.276;2024-02-15T04:45:04;11.30;99.90
31979;DHT22;18502;43.574;1.276;2024-02-15T04:47:34;11.30;99.90
31979;DHT22;18502;43.574;1.276;2024-02-15T04:50:00;11.30;99.90
31979;DHT22;18502;43.574;1.276;2024-02-15T04:52:26;11.20;99.90
31979;DHT22;18502;43.574;1.276;2024-02-15T04:54:51;11.20;99.90
31979;DHT22;18502;43.574;1.276;2024-02-15T04:57:20;11.20;99.90
31979;DHT22;18502;43.574;1.276;2024-02-15T04:59:46;11.20;99.90
31979;DHT22;18502;43.574;1.276;2024-02-15T05:02:14;11.20;99.90
31979;DHT22;18502;43.574;1.276;2024-02-15T05:04:39;11.20;99.90
31979;DHT22;18502;43.574;1.276;2024-02-15T05:07:10;11.20;99.90
31979;DHT22;18502;43.574;1.276;2024-02-15T05:09:36;11.20;99.90
31979;DHT22;18502;43.574;1.276;2024-02-15T05:12:01;11.20;99.90
31979;DHT22;18502;43.574;1.276;2024-02-15T05:14:31;11.10;99.90
31979;DHT22;18502;43.574;1.276;2024-02-15T05:16:56;11.10;99.90
31979;DHT22;18502;43.574;1.276;2024-02-15T05:19:22;11.10;99.90
31979;DHT22;18502;43.574;1.276;2024-02-15T05:21:49;11.00;99.90
31979;DHT22;18502;43.574;1.276;2024-02-15T05:24:16;11.10;99.90
31979;DHT22;18502;43.574;1.276;2024-02-15T05:26:44;11.10;99.90
31979;DHT22;18502;43.574;1.276;2024-02-15T05:29:12;11.10;99.90
31979;DHT22;18502;43.574;1.276;2024-02-15T05:31:38;11.20;99.90
31979;DHT22;18502;43.574;1.276;2024-02-15T05:34:06;11.20;99.90
31979;DHT22;18502;43.574;1.276;2024-02-15T05:36:37;11.20;99.90
31979;DHT22;18502;43.574;1.276;2024-02-15T05:39:04;11.20;99.90
31979;DHT22;18502;43.574;1.276;2024-02-15T05:41:30;11.10;99.90
31979;DHT22;18502;43.574;1.276;2024-02-15T05:44:00;11.10;99.90
31979;DHT22;18502;43.574;1.276;2024-02-15T05:46:25;11.10;99.90
31979;DHT22;18502;43.574;1.276;2024-02-15T05:48:53;11.10;99.90
31979;DHT22;18502;43.574;1.276;2024-02-15T05:51:19;11.10;99.90
31979;DHT22;18502;43.574;1.276;2024-02-15T05:53:44;11.20;99.90
31979;DHT22;18502;43.574;1.276;2024-02-15T05:56:10;11.20;99.90
31979;DHT22;18502;43.574;1.276;2024-02-15T05:58:36;11.20;99.90
31979;DHT22;18502;43.574;1.276;2024-02-15T06:01:03;11.20;99.90
31979;DHT22;18502;43.574;1.276;2024-02-15T06:03:34;11.20;99.90
31979;DHT22;18502;43.574;1.276;2024-02-15T06:06:03;11.30;99.90
31979;DHT22;18502;43.574;1.276;2024-02-15T06:08:32;11.40;99.90
31979;DHT22;18502;43.574;1.276;2024-02-15T06:10:58;11.40;99.90
31979;DHT22;18502;43.574;1.276;2024-02-15T06:13:25;11.40;99.90
31979;DHT22;18502;43.574;1.276;2024-02-15T06:15:50;11.40;99.90
31979;DHT22;18502;43.574;1.276;2024-02-15T06:18:24;11.40;99.90
31979;DHT22;18502;43.574;1.276;2024-02-15T06:20:53;11.40;99.90
31979;DHT22;18502;43.574;1.276;2024-02-15T06:23:19;11.40;99.90
31979;DHT22;18502;43.574;1.276;2024-02-15T06:25:46;11.40;99.90
31979;DHT22;18502;43.574;1.276;2024-02-15T06:28:13;11.40;99.90
31979;DHT22;18502;43.574;1.276;2024-02-15T06:30:45;11.40;99.90
31979;DHT22;18502;43.574;1.276;2024-02-15T06:33:30;11.40;99.90
31979;DHT22;18502;43.574;1.276;2024-02-15T06:36:14;11.50;99.90
31979;DHT22;18502;43.574;1.276;2024-02-15T06:38:58;11.50;99.90
31979;DHT22;18502;43.574;1.276;2024-02-15T06:41:43;11.50;99.90
31979;DHT22;18502;43.574;1.276;2024-02-15T06:44:09;11.40;99.90
31979;DHT22;18502;43.574;1.276;2024-02-15T06:46:35;11.50;99.90
31979;DHT22;18502;43.574;1.276;2024-02-15T06:49:01;11.50;99.90
31979;DHT22;18502;43.574;1.276;2024-02-15T06:51:26;11.50;99.90
31979;DHT22;18502;43.574;1.276;2024-02-15T06:53:52;11.50;99.90
31979;DHT22;18502;43.574;1.276;2024-02-15T06:56:21;11.50;99.90
31979;DHT22;18502;43.574;1.276;2024-02-15T06:58:47;11.60;99.90
31979;DHT22;18502;43.574;1.276;2024-02-15T07:01:14;11.60;99.90
31979;DHT22;18502;43.574;1.276;2024-02-15T07:03:44;11.50;99.90
31979;DHT22;18502;43.574;1.276;2024-02-15T07:06:10;11.60;99.90
31979;DHT22;18502;43.574;1.276;2024-02-15T07:08:39;11.60;99.90
31979;DHT22;18502;43.574;1.276;2024-02-15T07:11:07;11.70;99.90
31979;DHT22;18502;43.574;1.276;2024-02-15T07:13:35;11.70;99.90
31979;DHT22;18502;43.574;1.276;2024-02-15T07:16:01;11.70;99.90
31979;DHT22;18502;43.574;1.276;2024-02-15T07:18:28;11.70;99.90
31979;DHT22;18502;43.574;1.276;2024-02-15T07:20:54;11.70;99.90
31979;DHT22;18502;43.574;1.276;2024-02-15T07:23:22;11.70;99.90
31979;DHT22;18502;43.574;1.276;2024-02-15T07:25:48;11.70;99.90
31979;DHT22;18502;43.574;1.276;2024-02-15T07:28:14;11.70;99.90
31979;DHT22;18502;43.574;1.276;2024-02-15T07:30:39;11.80;99.90
31979;DHT22;18502;43.574;1.276;2024-02-15T07:33:05;11.80;99.90
31979;DHT22;18502;43.574;1.276;2024-02-15T07:35:32;11.70;99.90
31979;DHT22;18502;43.574;1.276;2024-02-15T07:37:58;11.70;99.90
31979;DHT22;18502;43.574;1.276;2024-02-15T07:40:26;11.80;99.90
31979;DHT22;18502;43.574;1.276;2024-02-15T07:42:56;11.80;99.90
31979;DHT22;18502;43.574;1.276;2024-02-15T07:45:22;11.80;99.90
31979;DHT22;18502;43.574;1.276;2024-02-15T07:47:48;11.90;99.90
31979;DHT22;18502;43.574;1.276;2024-02-15T07:50:17;11.90;99.90
31979;DHT22;18502;43.574;1.276;2024-02-15T07:52:48;11.90;99.90
31979;DHT22;18502;43.574;1.276;2024-02-15T07:55:14;12.00;99.90
31979;DHT22;18502;43.574;1.276;2024-02-15T07:57:40;12.00;99.90
31979;DHT22;18502;43.574;1.276;2024-02-15T08:00:06;12.10;99.90
31979;DHT22;18502;43.574;1.276;2024-02-15T08:02:39;12.10;99.90
31979;DHT22;18502;43.574;1.276;2024-02-15T08:05:10;12.20;99.90
31979;DHT22;18502;43.574;1.276;2024-02-15T08:07:43;12.20;99.90
31979;DHT22;18502;43.574;1.276;2024-02-15T08:10:10;12.20;99.90
31979;DHT22;18502;43.574;1.276;2024-02-15T08:12:40;12.20;99.90
31979;DHT22;18502;43.574;1.276;2024-02-15T08:15:07;12.10;99.90
31979;DHT22;18502;43.574;1.276;2024-02-15T08:17:38;12.20;99.90
31979;DHT22;18502;43.574;1.276;2024-02-15T08:20:06;12.20;99.90
31979;DHT22;18502;43.574;1.276;2024-02-15T08:22:33;12.30;99.90
31979;DHT22;18502;43.574;1.276;2024-02-15T08:24:59;12.30;99.90
31979;DHT22;18502;43.574;1.276;2024-02-15T08:27:25;12.30;99.90
31979;DHT22;18502;43.574;1.276;2024-02-15T08:29:51;12.30;99.90
31979;DHT22;18502;43.574;1.276;2024-02-15T08:32:16;12.20;99.90
31979;DHT22;18502;43.574;1.276;2024-02-15T08:34:42;12.30;99.90
31979;DHT22;18502;43.574;1.276;2024-02-15T08:37:08;12.30;99.90
31979;DHT22;18502;43.574;1.276;2024-02-15T08:39:34;12.20;99.90
31979;DHT22;18502;43.574;1.276;2024-02-15T08:42:00;12.20;99.90
31979;DHT22;18502;43.574;1.276;2024-02-15T08:44:26;12.20;99.90
31979;DHT22;18502;43.574;1.276;2024-02-15T08:46:51;12.20;99.90
31979;DHT22;18502;43.574;1.276;2024-02-15T08:49:17;12.30;99.90
31979;DHT22;18502;43.574;1.276;2024-02-15T08:51:43;12.30;99.90
31979;DHT22;18502;43.574;1.276;2024-02-15T08:54:08;12.30;99.90
31979;DHT22;18502;43.574;1.276;2024-02-15T08:56:35;12.40;99.90
31979;DHT22;18502;43.574;1.276;2024-02-15T08:59:01;12.50;99.90
31979;DHT22;18502;43.574;1.276;2024-02-15T09:01:26;12.70;99.90
31979;DHT22;18502;43.574;1.276;2024-02-15T09:03:52;12.70;99.90
31979;DHT22;18502;43.574;1.276;2024-02-15T09:06:18;12.70;99.90
31979;DHT22;18502;43.574;1.276;2024-02-15T09:08:43;12.70;99.90
31979;DHT22;18502;43.574;1.276;2024-02-15T09:11:09;12.70;99.90
31979;DHT22;18502;43.574;1.276;2024-02-15T09:13:37;12.70;99.90
31979;DHT22;18502;43.574;1.276;2024-02-15T09:16:04;12.70;99.90
31979;DHT22;18502;43.574;1.276;2024-02-15T09:18:30;12.80;99.90
31979;DHT22;18502;43.574;1.276;2024-02-15T09:20:56;12.80;99.90
31979;DHT22;18502;43.574;1.276;2024-02-15T09:23:22;12.90;99.90
31979;DHT22;18502;43.574;1.276;2024-02-15T09:25:49;13.00;99.90
31979;DHT22;18502;43.574;1.276;2024-02-15T09:28:18;13.00;99.90
31979;DHT22;18502;43.574;1.276;2024-02-15T09:30:48;12.90;99.90
31979;DHT22;18502;43.574;1.276;2024-02-15T09:33:13;13.00;99.90
31979;DHT22;18502;43.574;1.276;2024-02-15T09:35:39;13.00;99.90
31979;DHT22;18502;43.574;1.276;2024-02-15T09:38:04;13.20;99.90
31979;DHT22;18502;43.574;1.276;2024-02-15T09:40:31;13.20;99.90
31979;DHT22;18502;43.574;1.276;2024-02-15T09:42:57;13.20;99.90
31979;DHT22;18502;43.574;1.276;2024-02-15T09:45:23;13.20;99.90
31979;DHT22;18502;43.574;1.276;2024-02-15T09:47:50;13.40;99.90
31979;DHT22;18502;43.574;1.276;2024-02-15T09:50:18;13.40;99.90
31979;DHT22;18502;43.574;1.276;2024-02-15T09:52:49;13.40;99.90
31979;DHT22;18502;43.574;1.276;2024-02-15T09:55:16;13.40;99.90
31979;DHT22;18502;43.574;1.276;2024-02-15T09:57:46;13.30;99.90
31979;DHT22;18502;43.574;1.276;2024-02-15T10:00:13;13.40;99.90
31979;DHT22;18502;43.574;1.276;2024-02-15T10:02:45;13.30;99.90
31979;DHT22;18502;43.574;1.276;2024-02-15T10:05:11;13.10;99.90
31979;DHT22;18502;43.574;1.276;2024-02-15T10:07:41;13.40;99.90
31979;DHT22;18502;43.574;1.276;2024-02-15T10:10:22;13.60;99.90
31979;DHT22;18502;43.574;1.276;2024-02-15T10:12:49;13.30;99.90
31979;DHT22;18502;43.574;1.276;2024-02-15T10:15:34;13.60;99.90
31979;DHT22;18502;43.574;1.276;2024-02-15T10:18:08;13.70;99.90
31979;DHT22;18502;43.574;1.276;2024-02-15T10:20:39;13.80;99.90
31979;DHT22;18502;43.574;1.276;2024-02-15T10:25:34;13.50;99.90
31979;DHT22;18502;43.574;1.276;2024-02-15T10:28:06;13.40;99.90
31979;DHT22;18502;43.574;1.276;2024-02-15T10:30:34;13.60;99.90
31979;DHT22;18502;43.574;1.276;2024-02-15T10:33:01;13.70;99.90
31979;DHT22;18502;43.574;1.276;2024-02-15T10:35:28;13.80;99.90
31979;DHT22;18502;43.574;1.276;2024-02-15T10:38:07;13.70;99.90
31979;DHT22;18502;43.574;1.276;2024-02-15T10:40:34;13.80;99.90
31979;DHT22;18502;43.574;1.276;2024-02-15T10:43:00;13.90;99.90
31979;DHT22;18502;43.574;1.276;2024-02-15T10:45:29;13.80;99.90
31979;DHT22;18502;43.574;1.276;2024-02-15T10:47:56;13.70;99.90
31979;DHT22;18502;43.574;1.276;2024-02-15T10:50:25;13.90;99.90
31979;DHT22;18502;43.574;1.276;2024-02-15T10:52:56;14.00;99.90
31979;DHT22;18502;43.574;1.276;2024-02-15T10:55:47;13.90;99.90
31979;DHT22;18502;43.574;1.276;2024-02-15T10:58:19;14.10;99.90
31979;DHT22;18502;43.574;1.276;2024-02-15T11:00:46;14.30;99.90
31979;DHT22;18502;43.574;1.276;2024-02-15T11:03:19;14.20;99.90
31979;DHT22;18502;43.574;1.276;2024-02-15T11:05:47;14.20;99.90
31979;DHT22;18502;43.574;1.276;2024-02-15T11:08:13;14.50;99.90
31979;DHT22;18502;43.574;1.276;2024-02-15T11:10:39;14.40;99.90
31979;DHT22;18502;43.574;1.276;2024-02-15T11:13:09;14.30;99.90
31979;DHT22;18502;43.574;1.276;2024-02-15T11:18:02;14.40;99.90
31979;DHT22;18502;43.574;1.276;2024-02-15T11:20:49;14.30;99.90
31979;DHT22;18502;43.574;1.276;2024-02-15T11:23:24;14.20;99.90
31979;DHT22;18502;43.574;1.276;2024-02-15T11:25:51;14.30;99.90
31979;DHT22;18502;43.574;1.276;2024-02-15T11:30:49;14.20;99.90
31979;DHT22;18502;43.574;1.276;2024-02-15T11:36:09;15.20;99.90
31979;DHT22;18502;43.574;1.276;2024-02-15T11:38:36;14.90;99.90
31979;DHT22;18502;43.574;1.276;2024-02-15T11:41:05;14.80;99.90
31979;DHT22;18502;43.574;1.276;2024-02-15T11:46:19;14.80;99.90
31979;DHT22;18502;43.574;1.276;2024-02-15T11:48:48;14.80;99.90
31979;DHT22;18502;43.574;1.276;2024-02-15T11:54:06;14.70;99.90
31979;DHT22;18502;43.574;1.276;2024-02-15T11:56:48;14.80;99.90
31979;DHT22;18502;43.574;1.276;2024-02-15T11:59:16;14.70;99.90
31979;DHT22;18502;43.574;1.276;2024-02-15T12:01:56;14.50;99.90
31979;DHT22;18502;43.574;1.276;2024-02-15T12:04:40;14.50;99.90
31979;DHT22;18502;43.574;1.276;2024-02-15T12:07:25;14.50;99.90
31979;DHT22;18502;43.574;1.276;2024-02-15T12:10:18;14.30;99.90
31979;DHT22;18502;43.574;1.276;2024-02-15T12:13:03;14.10;99.90
31979;DHT22;18502;43.574;1.276;2024-02-15T12:16:00;14.30;99.90
31979;DHT22;18502;43.574;1.276;2024-02-15T12:18:45;14.40;99.90
31979;DHT22;18502;43.574;1.276;2024-02-15T12:21:17;15.60;99.90
31979;DHT22;18502;43.574;1.276;2024-02-15T12:23:44;15.30;99.90
31979;DHT22;18502;43.574;1.276;2024-02-15T12:26:11;15.20;99.90
31979;DHT22;18502;43.574;1.276;2024-02-15T12:28:40;15.30;99.90
31979;DHT22;18502;43.574;1.276;2024-02-15T12:31:09;15.20;99.90
31979;DHT22;18502;43.574;1.276;2024-02-15T12:33:35;15.90;99.90
31979;DHT22;18502;43.574;1.276;2024-02-15T12:36:04;15.60;99.90
31979;DHT22;18502;43.574;1.276;2024-02-15T12:38:34;15.80;99.90
31979;DHT22;18502;43.574;1.276;2024-02-15T12:41:23;15.70;99.90
31979;DHT22;18502;43.574;1.276;2024-02-15T12:43:55;15.30;99.90
31979;DHT22;18502;43.574;1.276;2024-02-15T12:46:22;15.00;99.90
31979;DHT22;18502;43.574;1.276;2024-02-15T12:48:48;14.60;99.90
31979;DHT22;18502;43.574;1.276;2024-02-15T12:51:15;14.60;99.90
31979;DHT22;18502;43.574;1.276;2024-02-15T12:53:41;14.50;99.90
31979;DHT22;18502;43.574;1.276;2024-02-15T12:56:09;14.60;99.90
31979;DHT22;18502;43.574;1.276;2024-02-15T12:58:35;14.50;99.90
31979;DHT22;18502;43.574;1.276;2024-02-15T13:01:01;14.20;99.90
31979;DHT22;18502;43.574;1.276;2024-02-15T13:03:27;14.20;99.90
31979;DHT22;18502;43.574;1.276;2024-02-15T13:05:53;14.50;99.90
31979;DHT22;18502;43.574;1.276;2024-02-15T13:08:19;14.60;99.90
31979;DHT22;18502;43.574;1.276;2024-02-15T13:10:45;14.60;99.90
31979;DHT22;18502;43.574;1.276;2024-02-15T13:13:12;14.90;99.90
31979;DHT22;18502;43.574;1.276;2024-02-15T13:15:41;14.80;99.90
31979;DHT22;18502;43.574;1.276;2024-02-15T13:18:08;14.70;99.90
31979;DHT22;18502;43.574;1.276;2024-02-15T13:20:39;14.90;99.90
31979;DHT22;18502;43.574;1.276;2024-02-15T13:23:06;15.00;99.90
31979;DHT22;18502;43.574;1.276;2024-02-15T13:25:37;15.10;99.90
31979;DHT22;18502;43.574;1.276;2024-02-15T13:28:05;14.90;99.90
31979;DHT22;18502;43.574;1.276;2024-02-15T13:30:31;14.60;99.90
31979;DHT22;18502;43.574;1.276;2024-02-15T13:32:57;14.60;99.90
31979;DHT22;18502;43.574;1.276;2024-02-15T13:35:23;14.70;99.90
31979;DHT22;18502;43.574;1.276;2024-02-15T13:37:53;14.60;99.90
31979;DHT22;18502;43.574;1.276;2024-02-15T13:40:26;14.60;99.90
31979;DHT22;18502;43.574;1.276;2024-02-15T13:42:55;14.50;99.90
31979;DHT22;18502;43.574;1.276;2024-02-15T13:45:27;14.40;99.90
31979;DHT22;18502;43.574;1.276;2024-02-15T13:47:56;14.20;99.90
31979;DHT22;18502;43.574;1.276;2024-02-15T13:50:22;14.10;99.90
31979;DHT22;18502;43.574;1.276;2024-02-15T13:52:49;14.10;99.90
31979;DHT22;18502;43.574;1.276;2024-02-15T13:55:18;14.40;99.90
31979;DHT22;18502;43.574;1.276;2024-02-15T13:57:46;14.40;99.90
31979;DHT22;18502;43.574;1.276;2024-02-15T14:00:14;14.30;99.90
31979;DHT22;18502;43.574;1.276;2024-02-15T14:02:53;14.10;99.90
31979;DHT22;18502;43.574;1.276;2024-02-15T14:05:21;14.00;99.90
31979;DHT22;18502;43.574;1.276;2024-02-15T14:07:54;14.30;99.90
31979;DHT22;18502;43.574;1.276;2024-02-15T14:10:24;14.40;99.90
31979;DHT22;18502;43.574;1.276;2024-02-15T14:12:53;14.70;99.90
31979;DHT22;18502;43.574;1.276;2024-02-15T14:15:21;14.40;99.90
31979;DHT22;18502;43.574;1.276;2024-02-15T14:17:47;14.40;99.90
31979;DHT22;18502;43.574;1.276;2024-02-15T14:20:13;14.50;99.90
31979;DHT22;18502;43.574;1.276;2024-02-15T14:22:46;14.70;99.90
31979;DHT22;18502;43.574;1.276;2024-02-15T14:25:18;14.50;99.90
31979;DHT22;18502;43.574;1.276;2024-02-15T14:27:44;14.60;99.90
31979;DHT22;18502;43.574;1.276;2024-02-15T14:30:11;14.90;99.90
31979;DHT22;18502;43.574;1.276;2024-02-15T14:32:55;14.70;99.90
31979;DHT22;18502;43.574;1.276;2024-02-15T14:35:34;14.40;99.90
31979;DHT22;18502;43.574;1.276;2024-02-15T14:38:07;14.90;99.90
31979;DHT22;18502;43.574;1.276;2024-02-15T14:40:37;14.90;99.90
31979;DHT22;18502;43.574;1.276;2024-02-15T14:43:04;14.70;99.90
31979;DHT22;18502;43.574;1.276;2024-02-15T14:45:31;14.50;99.90
31979;DHT22;18502;43.574;1.276;2024-02-15T14:47:58;14.70;99.90
31979;DHT22;18502;43.574;1.276;2024-02-15T14:50:24;14.90;99.90
31979;DHT22;18502;43.574;1.276;2024-02-15T14:52:51;15.20;99.90
31979;DHT22;18502;43.574;1.276;2024-02-15T14:55:19;15.70;99.90
31979;DHT22;18502;43.574;1.276;2024-02-15T14:57:45;15.20;99.90
31979;DHT22;18502;43.574;1.276;2024-02-15T15:00:12;14.90;99.90
31979;DHT22;18502;43.574;1.276;2024-02-15T15:02:46;15.20;99.90
31979;DHT22;18502;43.574;1.276;2024-02-15T15:05:15;15.00;99.90
31979;DHT22;18502;43.574;1.276;2024-02-15T15:08:00;14.80;99.90
31979;DHT22;18502;43.574;1.276;2024-02-15T15:10:47;14.60;99.90
31979;DHT22;18502;43.574;1.276;2024-02-15T15:13:32;14.80;99.90
31979;DHT22;18502;43.574;1.276;2024-02-15T15:15:59;14.80;99.90
31979;DHT22;18502;43.574;1.276;2024-02-15T15:18:25;14.80;99.90
31979;DHT22;18502;43.574;1.276;2024-02-15T15:20:50;14.60;99.90
31979;DHT22;18502;43.574;1.276;2024-02-15T15:23:16;14.50;99.90
31979;DHT22;18502;43.574;1.276;2024-02-15T15:25:42;14.50;99.90
31979;DHT22;18502;43.574;1.276;2024-02-15T15:28:08;14.70;99.90
31979;DHT22;18502;43.574;1.276;2024-02-15T15:30:34;14.70;99.90
31979;DHT22;18502;43.574;1.276;2024-02-15T15:33:00;14.70;99.90
31979;DHT22;18502;43.574;1.276;2024-02-15T15:35:26;14.50;99.90
31979;DHT22;18502;43.574;1.276;2024-02-15T15:37:58;14.20;99.90
31979;DHT22;18502;43.574;1.276;2024-02-15T15:40:24;14.20;99.90
31979;DHT22;18502;43.574;1.276;2024-02-15T15:42:51;14.30;99.90
31979;DHT22;18502;43.574;1.276;2024-02-15T15:45:17;14.10;99.90
31979;DHT22;18502;43.574;1.276;2024-02-15T15:47:42;14.00;99.90
31979;DHT22;18502;43.574;1.276;2024-02-15T15:50:08;13.90;99.90
31979;DHT22;18502;43.574;1.276;2024-02-15T15:52:37;13.80;99.90
31979;DHT22;18502;43.574;1.276;2024-02-15T15:55:04;13.80;99.90